sensor_id;sensor_type;location;lat;lon;timestamp;P1;durP1;ratioP1;P2;durP2;ratioP2
9665;SDS011;4871;52.004;5.924;2023-08-06T00:00:00;5.60;;;4.90;;
9665;SDS011;4871;52.004;5.924;2023-08-06T00:01:00;5.60;;;4.90;;
9665;SDS011;4871;52.004;5.924;2023-08-06T00:02:00;5.60;;;4.90;;
9665;SDS011;4871;52.004;5.924;2023-08-06T00:03:00;5.60;;;4.90;;
9665;SDS011;4871;52.004;5.924;2023-08-06T00:04:01;5.60;;;4.90;;
9665;SDS011;4871;52.004;5.924;2023-08-06T00:05:00;5.60;;;4.90;;
9665;SDS011;4871;52.004;5.924;2023-08-06T00:06:00;5.60;;;4.90;;
9665;SDS011;4871;52.004;5.924;2023-08-06T00:07:00;5.60;;;4.90;;
9665;SDS011;4871;52.004;5.924;2023-08-06T00:08:00;5.60;;;4.90;;
9665;SDS011;4871;52.004;5.924;2023-08-06T00:09:00;5.60;;;4.90;;
9665;SDS011;4871;52.004;5.924;2023-08-06T00:10:01;5.60;;;4.90;;
9665;SDS011;4871;52.004;5.924;2023-08-06T00:11:00;5.60;;;4.90;;
9665;SDS011;4871;52.004;5.924;2023-08-06T00:12:00;5.60;;;4.90;;
9665;SDS011;4871;52.004;5.924;2023-08-06T00:13:01;5.60;;;4.90;;
9665;SDS011;4871;52.004;5.924;2023-08-06T00:14:00;5.60;;;4.90;;
9665;SDS011;4871;52.004;5.924;2023-08-06T00:15:00;5.60;;;4.90;;
9665;SDS011;4871;52.004;5.924;2023-08-06T00:16:07;5.60;;;4.90;;
9665;SDS011;4871;52.004;5.924;2023-08-06T00:17:00;5.60;;;4.90;;
9665;SDS011;4871;52.004;5.924;2023-08-06T00:18:00;5.60;;;4.90;;
9665;SDS011;4871;52.004;5.924;2023-08-06T00:19:00;5.60;;;4.90;;
9665;SDS011;4871;52.004;5.924;2023-08-06T00:20:05;5.60;;;4.90;;
9665;SDS011;4871;52.004;5.924;2023-08-06T00:21:00;5.60;;;4.90;;
9665;SDS011;4871;52.004;5.924;2023-08-06T00:22:01;5.60;;;4.90;;
9665;SDS011;4871;52.004;5.924;2023-08-06T00:23:00;5.30;;;4.60;;
9665;SDS011;4871;52.004;5.924;2023-08-06T00:24:00;5.30;;;4.60;;
9665;SDS011;4871;52.004;5.924;2023-08-06T00:25:00;5.30;;;4.60;;
9665;SDS011;4871;52.004;5.924;2023-08-06T00:26:00;5.30;;;4.60;;
9665;SDS011;4871;52.004;5.924;2023-08-06T00:27:00;5.30;;;4.60;;
9665;SDS011;4871;52.004;5.924;2023-08-06T00:28:00;5.30;;;4.60;;
9665;SDS011;4871;52.004;5.924;2023-08-06T00:29:08;5.30;;;4.60;;
9665;SDS011;4871;52.004;5.924;2023-08-06T00:30:00;5.30;;;4.60;;
9665;SDS011;4871;52.004;5.924;2023-08-06T00:31:00;5.30;;;4.60;;
9665;SDS011;4871;52.004;5.924;2023-08-06T00:32:00;5.30;;;4.60;;
9665;SDS011;4871;52.004;5.924;2023-08-06T00:33:00;5.30;;;4.60;;
9665;SDS011;4871;52.004;5.924;2023-08-06T00:34:00;5.30;;;4.60;;
9665;SDS011;4871;52.004;5.924;2023-08-06T00:35:00;5.30;;;4.60;;
9665;SDS011;4871;52.004;5.924;2023-08-06T00:36:00;5.30;;;4.60;;
9665;SDS011;4871;52.004;5.924;2023-08-06T00:37:07;5.30;;;4.60;;
9665;SDS011;4871;52.004;5.924;2023-08-06T00:38:00;5.30;;;4.60;;
9665;SDS011;4871;52.004;5.924;2023-08-06T00:39:00;5.30;;;4.60;;
9665;SDS011;4871;52.004;5.924;2023-08-06T00:40:00;5.30;;;4.60;;
9665;SDS011;4871;52.004;5.924;2023-08-06T00:41:00;5.30;;;4.60;;
9665;SDS011;4871;52.004;5.924;2023-08-06T00:42:00;5.30;;;4.60;;
9665;SDS011;4871;52.004;5.924;2023-08-06T00:43:00;5.30;;;4.60;;
9665;SDS011;4871;52.004;5.924;2023-08-06T00:44:00;5.30;;;4.60;;
9665;SDS011;4871;52.004;5.924;2023-08-06T00:45:00;5.30;;;4.60;;
9665;SDS011;4871;52.004;5.924;2023-08-06T00:46:00;5.30;;;4.60;;
9665;SDS011;4871;52.004;5.924;2023-08-06T00:47:00;5.30;;;4.60;;
9665;SDS011;4871;52.004;5.924;2023-08-06T00:48:00;5.30;;;4.60;;
9665;SDS011;4871;52.004;5.924;2023-08-06T00:49:00;5.30;;;4.60;;
9665;SDS011;4871;52.004;5.924;2023-08-06T00:50:00;5.30;;;4.60;;
9665;SDS011;4871;52.004;5.924;2023-08-06T00:51:00;5.30;;;4.60;;
9665;SDS011;4871;52.004;5.924;2023-08-06T00:52:00;5.30;;;4.60;;
9665;SDS011;4871;52.004;5.924;2023-08-06T00:53:00;6.70;;;4.60;;
9665;SDS011;4871;52.004;5.924;2023-08-06T00:54:00;6.70;;;4.60;;
9665;SDS011;4871;52.004;5.924;2023-08-06T00:55:00;6.70;;;4.60;;
9665;SDS011;4871;52.004;5.924;2023-08-06T00:56:00;6.70;;;4.60;;
9665;SDS011;4871;52.004;5.924;2023-08-06T00:57:07;6.70;;;4.60;;
9665;SDS011;4871;52.004;5.924;2023-08-06T00:58:00;6.70;;;4.60;;
9665;SDS011;4871;52.004;5.924;2023-08-06T00:59:08;6.70;;;4.60;;
9665;SDS011;4871;52.004;5.924;2023-08-06T01:00:00;6.70;;;4.60;;
9665;SDS011;4871;52.004;5.924;2023-08-06T01:01:00;6.70;;;4.60;;
9665;SDS011;4871;52.004;5.924;2023-08-06T01:03:00;6.70;;;4.60;;
9665;SDS011;4871;52.004;5.924;2023-08-06T01:04:00;6.70;;;4.60;;
9665;SDS011;4871;52.004;5.924;2023-08-06T01:05:00;6.70;;;4.60;;
9665;SDS011;4871;52.004;5.924;2023-08-06T01:06:00;6.70;;;4.60;;
9665;SDS011;4871;52.004;5.924;2023-08-06T01:07:16;6.70;;;4.60;;
9665;SDS011;4871;52.004;5.924;2023-08-06T01:08:04;6.70;;;4.60;;
9665;SDS011;4871;52.004;5.924;2023-08-06T01:09:08;6.70;;;4.60;;
9665;SDS011;4871;52.004;5.924;2023-08-06T01:10:04;6.70;;;4.60;;
9665;SDS011;4871;52.004;5.924;2023-08-06T01:23:00;5.00;;;4.20;;
9665;SDS011;4871;52.004;5.924;2023-08-06T01:24:00;5.00;;;4.20;;
9665;SDS011;4871;52.004;5.924;2023-08-06T01:25:00;5.00;;;4.20;;
9665;SDS011;4871;52.004;5.924;2023-08-06T01:26:02;5.00;;;4.20;;
9665;SDS011;4871;52.004;5.924;2023-08-06T01:27:01;5.00;;;4.20;;
9665;SDS011;4871;52.004;5.924;2023-08-06T01:28:01;5.00;;;4.20;;
9665;SDS011;4871;52.004;5.924;2023-08-06T01:29:02;5.00;;;4.20;;
9665;SDS011;4871;52.004;5.924;2023-08-06T01:30:02;5.00;;;4.20;;
9665;SDS011;4871;52.004;5.924;2023-08-06T01:31:01;5.00;;;4.20;;
9665;SDS011;4871;52.004;5.924;2023-08-06T01:32:00;5.00;;;4.20;;
9665;SDS011;4871;52.004;5.924;2023-08-06T01:33:07;5.00;;;4.20;;
9665;SDS011;4871;52.004;5.924;2023-08-06T01:34:00;5.00;;;4.20;;
9665;SDS011;4871;52.004;5.924;2023-08-06T01:35:00;5.00;;;4.20;;
9665;SDS011;4871;52.004;5.924;2023-08-06T01:36:00;5.00;;;4.20;;
9665;SDS011;4871;52.004;5.924;2023-08-06T01:37:00;5.00;;;4.20;;
9665;SDS011;4871;52.004;5.924;2023-08-06T01:38:00;5.00;;;4.20;;
9665;SDS011;4871;52.004;5.924;2023-08-06T01:39:00;5.00;;;4.20;;
9665;SDS011;4871;52.004;5.924;2023-08-06T01:40:00;5.00;;;4.20;;
9665;SDS011;4871;52.004;5.924;2023-08-06T01:41:00;5.00;;;4.20;;
9665;SDS011;4871;52.004;5.924;2023-08-06T01:42:00;5.00;;;4.20;;
9665;SDS011;4871;52.004;5.924;2023-08-06T01:43:00;5.00;;;4.20;;
9665;SDS011;4871;52.004;5.924;2023-08-06T01:44:00;5.00;;;4.20;;
9665;SDS011;4871;52.004;5.924;2023-08-06T01:45:00;5.00;;;4.20;;
9665;SDS011;4871;52.004;5.924;2023-08-06T01:46:00;5.00;;;4.20;;
9665;SDS011;4871;52.004;5.924;2023-08-06T01:47:08;5.00;;;4.20;;
9665;SDS011;4871;52.004;5.924;2023-08-06T01:48:00;5.00;;;4.20;;
9665;SDS011;4871;52.004;5.924;2023-08-06T01:49:00;5.00;;;4.20;;
9665;SDS011;4871;52.004;5.924;2023-08-06T01:50:00;5.00;;;4.20;;
9665;SDS011;4871;52.004;5.924;2023-08-06T01:51:08;5.00;;;4.20;;
9665;SDS011;4871;52.004;5.924;2023-08-06T01:52:00;5.00;;;4.20;;
9665;SDS011;4871;52.004;5.924;2023-08-06T01:53:00;6.00;;;4.90;;
9665;SDS011;4871;52.004;5.924;2023-08-06T01:54:00;6.00;;;4.90;;
9665;SDS011;4871;52.004;5.924;2023-08-06T01:55:07;unavailable;;;unavailable;;
9665;SDS011;4871;52.004;5.924;2023-08-06T01:56:00;6.00;;;4.90;;
9665;SDS011;4871;52.004;5.924;2023-08-06T01:57:00;6.00;;;4.90;;
9665;SDS011;4871;52.004;5.924;2023-08-06T01:58:00;6.00;;;4.90;;
9665;SDS011;4871;52.004;5.924;2023-08-06T01:59:00;6.00;;;4.90;;
9665;SDS011;4871;52.004;5.924;2023-08-06T02:25:00;8.90;;;6.40;;
9665;SDS011;4871;52.004;5.924;2023-08-06T02:26:00;8.90;;;6.40;;
9665;SDS011;4871;52.004;5.924;2023-08-06T02:27:00;8.90;;;6.40;;
9665;SDS011;4871;52.004;5.924;2023-08-06T02:28:00;8.90;;;6.40;;
9665;SDS011;4871;52.004;5.924;2023-08-06T02:29:00;8.90;;;6.40;;
9665;SDS011;4871;52.004;5.924;2023-08-06T02:30:00;8.90;;;6.40;;
9665;SDS011;4871;52.004;5.924;2023-08-06T02:54:00;4.40;;;4.00;;
9665;SDS011;4871;52.004;5.924;2023-08-06T02:55:00;4.40;;;4.00;;
9665;SDS011;4871;52.004;5.924;2023-08-06T03:23:00;4.60;;;3.20;;
9665;SDS011;4871;52.004;5.924;2023-08-06T03:56:01;4.90;;;3.60;;
9665;SDS011;4871;52.004;5.924;2023-08-06T03:57:00;4.90;;;3.60;;
9665;SDS011;4871;52.004;5.924;2023-08-06T03:58:00;4.90;;;3.60;;
9665;SDS011;4871;52.004;5.924;2023-08-06T04:02:00;4.90;;;3.60;;
9665;SDS011;4871;52.004;5.924;2023-08-06T04:04:00;4.90;;;3.60;;
9665;SDS011;4871;52.004;5.924;2023-08-06T04:05:00;4.90;;;3.60;;
9665;SDS011;4871;52.004;5.924;2023-08-06T04:06:01;4.90;;;3.60;;
9665;SDS011;4871;52.004;5.924;2023-08-06T04:07:00;4.90;;;3.60;;
9665;SDS011;4871;52.004;5.924;2023-08-06T04:08:00;4.90;;;3.60;;
9665;SDS011;4871;52.004;5.924;2023-08-06T04:09:00;4.90;;;3.60;;
9665;SDS011;4871;52.004;5.924;2023-08-06T04:23:01;5.30;;;4.20;;
9665;SDS011;4871;52.004;5.924;2023-08-06T04:24:00;5.30;;;4.20;;
9665;SDS011;4871;52.004;5.924;2023-08-06T04:25:00;5.30;;;4.20;;
9665;SDS011;4871;52.004;5.924;2023-08-06T04:30:00;5.30;;;4.20;;
9665;SDS011;4871;52.004;5.924;2023-08-06T04:31:00;5.30;;;4.20;;
9665;SDS011;4871;52.004;5.924;2023-08-06T04:53:00;6.60;;;5.40;;
9665;SDS011;4871;52.004;5.924;2023-08-06T04:54:00;6.60;;;5.40;;
9665;SDS011;4871;52.004;5.924;2023-08-06T04:55:00;6.60;;;5.40;;
9665;SDS011;4871;52.004;5.924;2023-08-06T04:56:00;6.60;;;5.40;;
9665;SDS011;4871;52.004;5.924;2023-08-06T04:57:00;6.60;;;5.40;;
9665;SDS011;4871;52.004;5.924;2023-08-06T04:58:00;6.60;;;5.40;;
9665;SDS011;4871;52.004;5.924;2023-08-06T04:59:00;6.60;;;5.40;;
9665;SDS011;4871;52.004;5.924;2023-08-06T05:00:00;6.60;;;5.40;;
9665;SDS011;4871;52.004;5.924;2023-08-06T05:01:00;6.60;;;5.40;;
9665;SDS011;4871;52.004;5.924;2023-08-06T05:02:00;6.60;;;5.40;;
9665;SDS011;4871;52.004;5.924;2023-08-06T05:03:01;6.60;;;5.40;;
9665;SDS011;4871;52.004;5.924;2023-08-06T05:05:00;6.60;;;5.40;;
9665;SDS011;4871;52.004;5.924;2023-08-06T05:06:00;6.60;;;5.40;;
9665;SDS011;4871;52.004;5.924;2023-08-06T05:24:00;6.80;;;5.50;;
9665;SDS011;4871;52.004;5.924;2023-08-06T05:25:00;6.80;;;5.50;;
9665;SDS011;4871;52.004;5.924;2023-08-06T05:26:00;6.80;;;5.50;;
9665;SDS011;4871;52.004;5.924;2023-08-06T05:27:00;6.80;;;5.50;;
9665;SDS011;4871;52.004;5.924;2023-08-06T05:28:01;6.80;;;5.50;;
9665;SDS011;4871;52.004;5.924;2023-08-06T05:29:00;6.80;;;5.50;;
9665;SDS011;4871;52.004;5.924;2023-08-06T05:32:00;6.80;;;5.50;;
9665;SDS011;4871;52.004;5.924;2023-08-06T05:33:00;6.80;;;5.50;;
9665;SDS011;4871;52.004;5.924;2023-08-06T06:05:00;14.10;;;10.80;;
9665;SDS011;4871;52.004;5.924;2023-08-06T06:06:00;14.10;;;10.80;;
9665;SDS011;4871;52.004;5.924;2023-08-06T06:07:00;14.10;;;10.80;;
9665;SDS011;4871;52.004;5.924;2023-08-06T06:11:00;14.10;;;10.80;;
9665;SDS011;4871;52.004;5.924;2023-08-06T06:13:00;14.10;;;10.80;;
9665;SDS011;4871;52.004;5.924;2023-08-06T06:14:00;14.10;;;10.80;;
9665;SDS011;4871;52.004;5.924;2023-08-06T06:17:00;14.10;;;10.80;;
9665;SDS011;4871;52.004;5.924;2023-08-06T06:18:00;14.10;;;10.80;;
9665;SDS011;4871;52.004;5.924;2023-08-06T06:19:00;14.10;;;10.80;;
9665;SDS011;4871;52.004;5.924;2023-08-06T06:22:00;14.10;;;10.80;;
9665;SDS011;4871;52.004;5.924;2023-08-06T06:23:00;14.10;;;10.80;;
9665;SDS011;4871;52.004;5.924;2023-08-06T06:24:00;12.00;;;9.90;;
9665;SDS011;4871;52.004;5.924;2023-08-06T06:25:00;12.00;;;9.90;;
9665;SDS011;4871;52.004;5.924;2023-08-06T06:26:00;12.00;;;9.90;;
9665;SDS011;4871;52.004;5.924;2023-08-06T06:27:00;12.00;;;9.90;;
9665;SDS011;4871;52.004;5.924;2023-08-06T06:28:00;12.00;;;9.90;;
9665;SDS011;4871;52.004;5.924;2023-08-06T06:29:00;12.00;;;9.90;;
9665;SDS011;4871;52.004;5.924;2023-08-06T06:30:00;12.00;;;9.90;;
9665;SDS011;4871;52.004;5.924;2023-08-06T07:52:00;8.90;;;7.20;;
9665;SDS011;4871;52.004;5.924;2023-08-06T07:53:00;8.90;;;7.20;;
9665;SDS011;4871;52.004;5.924;2023-08-06T07:54:00;8.90;;;7.20;;
9665;SDS011;4871;52.004;5.924;2023-08-06T07:56:02;8.90;;;7.20;;
9665;SDS011;4871;52.004;5.924;2023-08-06T07:57:00;8.90;;;7.20;;
9665;SDS011;4871;52.004;5.924;2023-08-06T07:58:00;8.90;;;7.20;;
9665;SDS011;4871;52.004;5.924;2023-08-06T07:59:00;8.90;;;7.20;;
9665;SDS011;4871;52.004;5.924;2023-08-06T08:00:00;8.90;;;7.20;;
9665;SDS011;4871;52.004;5.924;2023-08-06T08:01:00;8.90;;;7.20;;
9665;SDS011;4871;52.004;5.924;2023-08-06T08:02:00;8.90;;;7.20;;
9665;SDS011;4871;52.004;5.924;2023-08-06T08:03:00;8.90;;;7.20;;
9665;SDS011;4871;52.004;5.924;2023-08-06T08:04:00;8.90;;;7.20;;
9665;SDS011;4871;52.004;5.924;2023-08-06T08:05:00;8.90;;;7.20;;
9665;SDS011;4871;52.004;5.924;2023-08-06T08:06:00;8.90;;;7.20;;
9665;SDS011;4871;52.004;5.924;2023-08-06T08:07:00;8.90;;;7.20;;
9665;SDS011;4871;52.004;5.924;2023-08-06T08:08:00;8.90;;;7.20;;
9665;SDS011;4871;52.004;5.924;2023-08-06T08:09:00;8.90;;;7.20;;
9665;SDS011;4871;52.004;5.924;2023-08-06T08:10:00;8.90;;;7.20;;
9665;SDS011;4871;52.004;5.924;2023-08-06T08:11:00;8.90;;;7.20;;
9665;SDS011;4871;52.004;5.924;2023-08-06T08:25:00;10.30;;;8.60;;
9665;SDS011;4871;52.004;5.924;2023-08-06T08:26:02;10.30;;;8.60;;
9665;SDS011;4871;52.004;5.924;2023-08-06T08:27:00;10.30;;;8.60;;
9665;SDS011;4871;52.004;5.924;2023-08-06T08:28:00;10.30;;;8.60;;
9665;SDS011;4871;52.004;5.924;2023-08-06T08:29:00;10.30;;;8.60;;
9665;SDS011;4871;52.004;5.924;2023-08-06T08:30:00;10.30;;;8.60;;
9665;SDS011;4871;52.004;5.924;2023-08-06T08:31:00;10.30;;;8.60;;
9665;SDS011;4871;52.004;5.924;2023-08-06T08:32:00;10.30;;;8.60;;
9665;SDS011;4871;52.004;5.924;2023-08-06T08:33:00;10.30;;;8.60;;
9665;SDS011;4871;52.004;5.924;2023-08-06T08:53:00;9.80;;;8.60;;
9665;SDS011;4871;52.004;5.924;2023-08-06T08:54:00;9.80;;;8.60;;
9665;SDS011;4871;52.004;5.924;2023-08-06T08:55:00;9.80;;;8.60;;
9665;SDS011;4871;52.004;5.924;2023-08-06T08:56:00;9.80;;;8.60;;
9665;SDS011;4871;52.004;5.924;2023-08-06T08:57:00;9.80;;;8.60;;
9665;SDS011;4871;52.004;5.924;2023-08-06T08:59:00;9.80;;;8.60;;
9665;SDS011;4871;52.004;5.924;2023-08-06T09:00:00;9.80;;;8.60;;
9665;SDS011;4871;52.004;5.924;2023-08-06T09:01:00;9.80;;;8.60;;
9665;SDS011;4871;52.004;5.924;2023-08-06T09:02:00;9.80;;;8.60;;
9665;SDS011;4871;52.004;5.924;2023-08-06T09:06:00;9.80;;;8.60;;
9665;SDS011;4871;52.004;5.924;2023-08-06T09:07:00;9.80;;;8.60;;
9665;SDS011;4871;52.004;5.924;2023-08-06T09:08:01;9.80;;;8.60;;
9665;SDS011;4871;52.004;5.924;2023-08-06T09:09:01;9.80;;;8.60;;
9665;SDS011;4871;52.004;5.924;2023-08-06T09:10:00;9.80;;;8.60;;
9665;SDS011;4871;52.004;5.924;2023-08-06T09:24:00;7.00;;;6.10;;
9665;SDS011;4871;52.004;5.924;2023-08-06T09:25:00;7.00;;;6.10;;
9665;SDS011;4871;52.004;5.924;2023-08-06T09:26:01;7.00;;;6.10;;
9665;SDS011;4871;52.004;5.924;2023-08-06T09:27:00;7.00;;;6.10;;
9665;SDS011;4871;52.004;5.924;2023-08-06T09:36:06;7.00;;;6.10;;
9665;SDS011;4871;52.004;5.924;2023-08-06T09:37:00;7.00;;;6.10;;
9665;SDS011;4871;52.004;5.924;2023-08-06T09:53:00;7.20;;;5.40;;
9665;SDS011;4871;52.004;5.924;2023-08-06T09:54:00;7.20;;;5.40;;
9665;SDS011;4871;52.004;5.924;2023-08-06T09:55:00;7.20;;;5.40;;
9665;SDS011;4871;52.004;5.924;2023-08-06T09:56:00;7.20;;;5.40;;
9665;SDS011;4871;52.004;5.924;2023-08-06T09:57:00;7.20;;;5.40;;
9665;SDS011;4871;52.004;5.924;2023-08-06T09:58:00;7.20;;;5.40;;
9665;SDS011;4871;52.004;5.924;2023-08-06T09:59:00;7.20;;;5.40;;
9665;SDS011;4871;52.004;5.924;2023-08-06T10:00:00;7.20;;;5.40;;
9665;SDS011;4871;52.004;5.924;2023-08-06T10:01:00;7.20;;;5.40;;
9665;SDS011;4871;52.004;5.924;2023-08-06T10:02:00;7.20;;;5.40;;
9665;SDS011;4871;52.004;5.924;2023-08-06T10:03:00;7.20;;;5.40;;
9665;SDS011;4871;52.004;5.924;2023-08-06T10:04:00;7.20;;;5.40;;
9665;SDS011;4871;52.004;5.924;2023-08-06T10:05:00;7.20;;;5.40;;
9665;SDS011;4871;52.004;5.924;2023-08-06T10:06:02;7.20;;;5.40;;
9665;SDS011;4871;52.004;5.924;2023-08-06T10:07:00;7.20;;;5.40;;
9665;SDS011;4871;52.004;5.924;2023-08-06T10:08:00;7.20;;;5.40;;
9665;SDS011;4871;52.004;5.924;2023-08-06T10:09:00;7.20;;;5.40;;
9665;SDS011;4871;52.004;5.924;2023-08-06T10:10:00;7.20;;;5.40;;
9665;SDS011;4871;52.004;5.924;2023-08-06T10:11:00;7.20;;;5.40;;
9665;SDS011;4871;52.004;5.924;2023-08-06T10:12:00;7.20;;;5.40;;
9665;SDS011;4871;52.004;5.924;2023-08-06T10:13:00;7.20;;;5.40;;
9665;SDS011;4871;52.004;5.924;2023-08-06T10:14:02;7.20;;;5.40;;
9665;SDS011;4871;52.004;5.924;2023-08-06T10:15:00;7.20;;;5.40;;
9665;SDS011;4871;52.004;5.924;2023-08-06T10:16:00;7.20;;;5.40;;
9665;SDS011;4871;52.004;5.924;2023-08-06T10:17:00;7.20;;;5.40;;
9665;SDS011;4871;52.004;5.924;2023-08-06T10:18:00;7.20;;;5.40;;
9665;SDS011;4871;52.004;5.924;2023-08-06T10:19:00;7.20;;;5.40;;
9665;SDS011;4871;52.004;5.924;2023-08-06T10:20:00;7.20;;;5.40;;
9665;SDS011;4871;52.004;5.924;2023-08-06T10:21:00;7.20;;;5.40;;
9665;SDS011;4871;52.004;5.924;2023-08-06T10:22:16;7.20;;;5.40;;
9665;SDS011;4871;52.004;5.924;2023-08-06T10:23:00;8.20;;;7.40;;
9665;SDS011;4871;52.004;5.924;2023-08-06T10:24:02;8.20;;;7.40;;
9665;SDS011;4871;52.004;5.924;2023-08-06T10:25:04;8.20;;;7.40;;
9665;SDS011;4871;52.004;5.924;2023-08-06T10:26:00;8.20;;;7.40;;
9665;SDS011;4871;52.004;5.924;2023-08-06T10:27:00;8.20;;;7.40;;
9665;SDS011;4871;52.004;5.924;2023-08-06T10:52:00;2.50;;;1.50;;
9665;SDS011;4871;52.004;5.924;2023-08-06T10:53:03;2.50;;;1.50;;
9665;SDS011;4871;52.004;5.924;2023-08-06T10:54:00;2.50;;;1.50;;
9665;SDS011;4871;52.004;5.924;2023-08-06T10:55:00;2.50;;;1.50;;
9665;SDS011;4871;52.004;5.924;2023-08-06T10:56:00;2.50;;;1.50;;
9665;SDS011;4871;52.004;5.924;2023-08-06T10:57:00;2.50;;;1.50;;
9665;SDS011;4871;52.004;5.924;2023-08-06T10:58:00;2.50;;;1.50;;
9665;SDS011;4871;52.004;5.924;2023-08-06T10:59:00;2.50;;;1.50;;
9665;SDS011;4871;52.004;5.924;2023-08-06T11:00:00;2.50;;;1.50;;
9665;SDS011;4871;52.004;5.924;2023-08-06T11:01:00;2.50;;;1.50;;
9665;SDS011;4871;52.004;5.924;2023-08-06T11:02:00;2.50;;;1.50;;
9665;SDS011;4871;52.004;5.924;2023-08-06T11:03:00;2.50;;;1.50;;
9665;SDS011;4871;52.004;5.924;2023-08-06T11:04:01;2.50;;;1.50;;
9665;SDS011;4871;52.004;5.924;2023-08-06T11:05:04;2.50;;;1.50;;
9665;SDS011;4871;52.004;5.924;2023-08-06T11:06:00;2.50;;;1.50;;
9665;SDS011;4871;52.004;5.924;2023-08-06T11:07:00;2.50;;;1.50;;
9665;SDS011;4871;52.004;5.924;2023-08-06T11:08:00;2.50;;;1.50;;
9665;SDS011;4871;52.004;5.924;2023-08-06T11:22:01;1.40;;;1.10;;
9665;SDS011;4871;52.004;5.924;2023-08-06T11:23:00;1.40;;;1.10;;
9665;SDS011;4871;52.004;5.924;2023-08-06T11:24:00;1.40;;;1.10;;
9665;SDS011;4871;52.004;5.924;2023-08-06T11:25:01;1.40;;;1.10;;
9665;SDS011;4871;52.004;5.924;2023-08-06T11:26:00;1.40;;;1.10;;
9665;SDS011;4871;52.004;5.924;2023-08-06T11:27:00;1.40;;;1.10;;
9665;SDS011;4871;52.004;5.924;2023-08-06T11:28:00;1.40;;;1.10;;
9665;SDS011;4871;52.004;5.924;2023-08-06T11:29:00;1.40;;;1.10;;
9665;SDS011;4871;52.004;5.924;2023-08-06T11:30:00;1.40;;;1.10;;
9665;SDS011;4871;52.004;5.924;2023-08-06T11:31:02;1.40;;;1.10;;
9665;SDS011;4871;52.004;5.924;2023-08-06T11:32:03;1.40;;;1.10;;
9665;SDS011;4871;52.004;5.924;2023-08-06T11:33:00;1.40;;;1.10;;
9665;SDS011;4871;52.004;5.924;2023-08-06T11:34:00;1.40;;;1.10;;
9665;SDS011;4871;52.004;5.924;2023-08-06T11:35:14;1.40;;;1.10;;
9665;SDS011;4871;52.004;5.924;2023-08-06T11:36:00;1.40;;;1.10;;
9665;SDS011;4871;52.004;5.924;2023-08-06T11:37:00;1.40;;;1.10;;
9665;SDS011;4871;52.004;5.924;2023-08-06T11:38:00;1.40;;;1.10;;
9665;SDS011;4871;52.004;5.924;2023-08-06T11:39:00;1.40;;;1.10;;
9665;SDS011;4871;52.004;5.924;2023-08-06T11:40:00;1.40;;;1.10;;
9665;SDS011;4871;52.004;5.924;2023-08-06T11:41:00;1.40;;;1.10;;
9665;SDS011;4871;52.004;5.924;2023-08-06T11:42:02;1.40;;;1.10;;
9665;SDS011;4871;52.004;5.924;2023-08-06T11:43:00;1.40;;;1.10;;
9665;SDS011;4871;52.004;5.924;2023-08-06T11:44:01;1.40;;;1.10;;
9665;SDS011;4871;52.004;5.924;2023-08-06T11:45:00;1.40;;;1.10;;
9665;SDS011;4871;52.004;5.924;2023-08-06T11:46:00;1.40;;;1.10;;
9665;SDS011;4871;52.004;5.924;2023-08-06T11:47:02;1.40;;;1.10;;
9665;SDS011;4871;52.004;5.924;2023-08-06T11:48:00;1.40;;;1.10;;
9665;SDS011;4871;52.004;5.924;2023-08-06T11:49:00;1.40;;;1.10;;
9665;SDS011;4871;52.004;5.924;2023-08-06T11:50:00;1.40;;;1.10;;
9665;SDS011;4871;52.004;5.924;2023-08-06T11:51:00;1.40;;;1.10;;
9665;SDS011;4871;52.004;5.924;2023-08-06T11:52:00;1.10;;;0.90;;
9665;SDS011;4871;52.004;5.924;2023-08-06T11:53:00;1.10;;;0.90;;
9665;SDS011;4871;52.004;5.924;2023-08-06T11:54:00;1.10;;;0.90;;
9665;SDS011;4871;52.004;5.924;2023-08-06T11:55:01;1.10;;;0.90;;
9665;SDS011;4871;52.004;5.924;2023-08-06T11:56:00;1.10;;;0.90;;
9665;SDS011;4871;52.004;5.924;2023-08-06T11:57:02;1.10;;;0.90;;
9665;SDS011;4871;52.004;5.924;2023-08-06T11:58:02;1.10;;;0.90;;
9665;SDS011;4871;52.004;5.924;2023-08-06T11:59:00;1.10;;;0.90;;
9665;SDS011;4871;52.004;5.924;2023-08-06T12:00:02;1.10;;;0.90;;
9665;SDS011;4871;52.004;5.924;2023-08-06T12:01:01;1.10;;;0.90;;
9665;SDS011;4871;52.004;5.924;2023-08-06T12:02:01;1.10;;;0.90;;
9665;SDS011;4871;52.004;5.924;2023-08-06T12:03:00;1.10;;;0.90;;
9665;SDS011;4871;52.004;5.924;2023-08-06T12:04:00;1.10;;;0.90;;
9665;SDS011;4871;52.004;5.924;2023-08-06T12:05:01;1.10;;;0.90;;
9665;SDS011;4871;52.004;5.924;2023-08-06T12:06:00;1.10;;;0.90;;
9665;SDS011;4871;52.004;5.924;2023-08-06T12:07:13;1.10;;;0.90;;
9665;SDS011;4871;52.004;5.924;2023-08-06T12:08:00;1.10;;;0.90;;
9665;SDS011;4871;52.004;5.924;2023-08-06T12:09:00;1.10;;;0.90;;
9665;SDS011;4871;52.004;5.924;2023-08-06T12:10:00;1.10;;;0.90;;
9665;SDS011;4871;52.004;5.924;2023-08-06T12:11:00;1.10;;;0.90;;
9665;SDS011;4871;52.004;5.924;2023-08-06T12:12:00;1.10;;;0.90;;
9665;SDS011;4871;52.004;5.924;2023-08-06T12:13:00;1.10;;;0.90;;
9665;SDS011;4871;52.004;5.924;2023-08-06T12:14:00;1.10;;;0.90;;
9665;SDS011;4871;52.004;5.924;2023-08-06T12:15:00;1.10;;;0.90;;
9665;SDS011;4871;52.004;5.924;2023-08-06T12:16:00;1.10;;;0.90;;
9665;SDS011;4871;52.004;5.924;2023-08-06T12:17:00;1.10;;;0.90;;
9665;SDS011;4871;52.004;5.924;2023-08-06T12:18:00;1.10;;;0.90;;
9665;SDS011;4871;52.004;5.924;2023-08-06T12:19:00;1.10;;;0.90;;
9665;SDS011;4871;52.004;5.924;2023-08-06T12:20:00;1.10;;;0.90;;
9665;SDS011;4871;52.004;5.924;2023-08-06T12:21:00;1.10;;;0.90;;
9665;SDS011;4871;52.004;5.924;2023-08-06T12:22:00;2.80;;;2.00;;
9665;SDS011;4871;52.004;5.924;2023-08-06T12:23:00;2.80;;;2.00;;
9665;SDS011;4871;52.004;5.924;2023-08-06T12:24:00;2.80;;;2.00;;
9665;SDS011;4871;52.004;5.924;2023-08-06T12:25:01;2.80;;;2.00;;
9665;SDS011;4871;52.004;5.924;2023-08-06T12:26:00;2.80;;;2.00;;
9665;SDS011;4871;52.004;5.924;2023-08-06T12:27:02;2.80;;;2.00;;
9665;SDS011;4871;52.004;5.924;2023-08-06T12:28:00;2.80;;;2.00;;
9665;SDS011;4871;52.004;5.924;2023-08-06T12:29:00;2.80;;;2.00;;
9665;SDS011;4871;52.004;5.924;2023-08-06T12:30:00;2.80;;;2.00;;
9665;SDS011;4871;52.004;5.924;2023-08-06T12:31:00;2.80;;;2.00;;
9665;SDS011;4871;52.004;5.924;2023-08-06T12:32:00;2.80;;;2.00;;
9665;SDS011;4871;52.004;5.924;2023-08-06T12:33:00;2.80;;;2.00;;
9665;SDS011;4871;52.004;5.924;2023-08-06T12:34:00;2.80;;;2.00;;
9665;SDS011;4871;52.004;5.924;2023-08-06T12:35:01;2.80;;;2.00;;
9665;SDS011;4871;52.004;5.924;2023-08-06T12:36:00;2.80;;;2.00;;
9665;SDS011;4871;52.004;5.924;2023-08-06T12:37:01;2.80;;;2.00;;
9665;SDS011;4871;52.004;5.924;2023-08-06T12:38:00;2.80;;;2.00;;
9665;SDS011;4871;52.004;5.924;2023-08-06T12:39:00;2.80;;;2.00;;
9665;SDS011;4871;52.004;5.924;2023-08-06T12:40:00;2.80;;;2.00;;
9665;SDS011;4871;52.004;5.924;2023-08-06T12:41:00;2.80;;;2.00;;
9665;SDS011;4871;52.004;5.924;2023-08-06T12:42:00;2.80;;;2.00;;
9665;SDS011;4871;52.004;5.924;2023-08-06T12:43:00;2.80;;;2.00;;
9665;SDS011;4871;52.004;5.924;2023-08-06T12:44:00;2.80;;;2.00;;
9665;SDS011;4871;52.004;5.924;2023-08-06T12:45:00;2.80;;;2.00;;
9665;SDS011;4871;52.004;5.924;2023-08-06T12:46:00;2.80;;;2.00;;
9665;SDS011;4871;52.004;5.924;2023-08-06T12:47:00;2.80;;;2.00;;
9665;SDS011;4871;52.004;5.924;2023-08-06T12:48:00;2.80;;;2.00;;
9665;SDS011;4871;52.004;5.924;2023-08-06T12:49:00;2.80;;;2.00;;
9665;SDS011;4871;52.004;5.924;2023-08-06T12:50:00;2.80;;;2.00;;
9665;SDS011;4871;52.004;5.924;2023-08-06T12:51:00;2.80;;;2.00;;
9665;SDS011;4871;52.004;5.924;2023-08-06T12:52:00;2.80;;;2.00;;
9665;SDS011;4871;52.004;5.924;2023-08-06T12:53:00;2.30;;;1.80;;
9665;SDS011;4871;52.004;5.924;2023-08-06T12:54:00;2.30;;;1.80;;
9665;SDS011;4871;52.004;5.924;2023-08-06T12:55:00;2.30;;;1.80;;
9665;SDS011;4871;52.004;5.924;2023-08-06T12:56:00;2.30;;;1.80;;
9665;SDS011;4871;52.004;5.924;2023-08-06T12:57:00;2.30;;;1.80;;
9665;SDS011;4871;52.004;5.924;2023-08-06T12:58:00;2.30;;;1.80;;
9665;SDS011;4871;52.004;5.924;2023-08-06T12:59:00;2.30;;;1.80;;
9665;SDS011;4871;52.004;5.924;2023-08-06T13:00:00;2.30;;;1.80;;
9665;SDS011;4871;52.004;5.924;2023-08-06T13:01:00;2.30;;;1.80;;
9665;SDS011;4871;52.004;5.924;2023-08-06T13:02:00;2.30;;;1.80;;
9665;SDS011;4871;52.004;5.924;2023-08-06T13:03:00;2.30;;;1.80;;